createdAt,value
2018-12-04T00:00:48.816Z,99812.78
2018-12-04T00:03:17.342Z,99789.73
2018-12-04T00:05:45.791Z,99807.30
2018-12-04T00:08:14.277Z,99809.67
2018-12-04T00:10:42.727Z,99804.27
2018-12-04T00:13:11.223Z,99818.13
2018-12-04T00:15:39.664Z,99814.59
2018-12-04T00:18:08.148Z,99824.50
2018-12-04T00:20:36.609Z,99825.31
2018-12-04T00:23:05.094Z,99813.97
2018-12-04T00:25:33.574Z,99811.02
2018-12-04T00:28:02.022Z,99816.97
2018-12-04T00:30:30.503Z,99830.52
2018-12-04T00:32:58.945Z,99832.63
2018-12-04T00:35:27.426Z,99847.95
2018-12-04T00:37:55.873Z,99851.63
2018-12-04T00:40:24.335Z,99857.33
2018-12-04T00:42:52.784Z,99862.78
2018-12-04T00:45:21.250Z,99863.00
2018-12-04T00:47:49.719Z,99880.52
2018-12-04T00:50:18.194Z,99879.94
2018-12-04T00:52:46.649Z,99885.86
2018-12-04T00:55:15.126Z,99895.79
2018-12-04T00:57:43.577Z,99896.53
2018-12-04T01:00:12.096Z,99907.38
2018-12-04T01:02:40.531Z,99902.57
2018-12-04T01:05:09.005Z,99904.23
2018-12-04T01:07:37.458Z,99907.66
2018-12-04T01:10:06.981Z,99905.28
2018-12-04T01:12:35.432Z,99914.17
2018-12-04T01:15:04.331Z,99917.71
2018-12-04T01:17:32.760Z,99928.26
2018-12-04T01:20:01.223Z,99928.92
2018-12-04T01:22:29.662Z,99950.23
2018-12-04T01:24:58.182Z,99956.31
2018-12-04T01:27:26.655Z,99963.80
2018-12-04T01:29:55.103Z,99977.76
2018-12-04T01:32:23.571Z,99989.22
2018-12-04T01:34:52.035Z,99989.73
2018-12-04T01:37:20.506Z,99999.94
2018-12-04T01:39:48.949Z,99998.92
2018-12-04T01:42:17.431Z,100004.14
2018-12-04T01:44:45.886Z,100010.09
2018-12-04T01:47:14.354Z,100022.61
2018-12-04T01:49:42.810Z,100026.80
2018-12-04T01:52:11.278Z,100031.62
2018-12-04T01:54:39.724Z,100039.81
2018-12-04T01:57:08.207Z,100051.72
2018-12-04T01:59:42.130Z,100052.11
2018-12-04T02:02:16.328Z,100061.84
2018-12-04T02:04:44.768Z,100058.64
2018-12-04T02:07:13.240Z,100070.77
2018-12-04T02:09:41.690Z,100067.61
2018-12-04T02:12:10.184Z,100075.41
2018-12-04T02:14:38.626Z,100079.23
2018-12-04T02:17:07.122Z,100079.38
2018-12-04T02:19:35.577Z,100087.11
2018-12-04T02:22:04.117Z,100099.32
2018-12-04T02:24:32.600Z,100100.44
2018-12-04T02:27:01.089Z,100097.28
2018-12-04T02:29:29.533Z,100100.14
2018-12-04T02:31:58.038Z,100112.08
2018-12-04T02:34:26.475Z,100117.70
2018-12-04T02:36:54.947Z,100127.41
2018-12-04T02:39:23.452Z,100128.48
2018-12-04T02:42:10.084Z,100139.20
2018-12-04T02:44:38.536Z,100149.48
2018-12-04T02:47:07.051Z,100157.80
2018-12-04T02:49:35.508Z,100160.20
2018-12-04T02:52:03.982Z,100164.12
2018-12-04T02:54:32.476Z,100166.20
2018-12-04T02:57:00.932Z,100178.55
2018-12-04T02:59:29.418Z,100187.90
2018-12-04T03:01:57.885Z,100192.03
2018-12-04T03:04:26.366Z,100203.50
2018-12-04T03:06:54.827Z,100209.38
2018-12-04T03:09:23.301Z,100201.59
2018-12-04T03:11:51.822Z,100219.71
2018-12-04T03:14:20.291Z,100219.14
2018-12-04T03:16:48.745Z,100214.68
2018-12-04T03:19:17.249Z,100226.90
2018-12-04T03:21:45.722Z,100236.10
2018-12-04T03:24:14.209Z,100232.95
2018-12-04T03:26:42.667Z,100248.30
2018-12-04T03:29:11.156Z,100244.66
2018-12-04T03:31:39.613Z,100262.48
2018-12-04T03:34:08.100Z,100269.58
2018-12-04T03:36:36.552Z,100270.93
2018-12-04T03:39:07.102Z,100275.57
2018-12-04T03:41:35.791Z,100285.06
2018-12-04T03:44:04.580Z,100294.08
2018-12-04T03:46:33.055Z,100297.57
2018-12-04T03:49:01.568Z,100307.98
2018-12-04T03:51:30.078Z,100318.36
2018-12-04T03:53:58.556Z,100316.53
2018-12-04T03:56:27.016Z,100325.64
2018-12-04T03:58:55.479Z,100332.00
2018-12-04T04:01:23.934Z,100344.72
2018-12-04T04:03:52.428Z,100346.07
2018-12-04T04:06:20.870Z,100358.43
2018-12-04T04:08:49.397Z,100350.80
2018-12-04T04:11:17.864Z,100364.30
2018-12-04T04:13:46.340Z,100361.52
2018-12-04T04:16:14.857Z,100383.63
2018-12-04T04:18:43.313Z,100377.05
2018-12-04T04:21:11.860Z,100380.63
2018-12-04T04:23:40.344Z,100394.02
2018-12-04T04:26:08.828Z,100398.27
2018-12-04T04:28:37.290Z,100402.98
2018-12-04T04:31:05.778Z,100411.66
2018-12-04T04:33:34.229Z,100420.98
2018-12-04T04:36:02.697Z,100424.75
2018-12-04T04:38:31.152Z,100426.17
2018-12-04T04:40:59.643Z,100429.55
2018-12-04T04:43:28.091Z,100434.68
2018-12-04T04:45:56.570Z,100438.91
2018-12-04T04:48:25.019Z,100446.06
2018-12-04T04:50:53.519Z,100456.88
2018-12-04T04:53:21.969Z,100464.48
2018-12-04T04:55:50.461Z,100475.36
2018-12-04T04:58:18.913Z,100473.33
2018-12-04T05:00:47.415Z,100489.94
2018-12-04T05:03:15.862Z,100483.55
2018-12-04T05:05:44.304Z,100492.20
2018-12-04T05:08:12.774Z,100502.20
2018-12-04T05:10:41.224Z,100507.64
2018-12-04T05:13:09.705Z,100505.47
2018-12-04T05:15:38.171Z,100515.78
2018-12-04T05:18:06.666Z,100507.05
2018-12-04T05:20:35.130Z,100516.88
2018-12-04T05:23:03.620Z,100515.86
2018-12-04T05:25:32.094Z,100521.64
2018-12-04T05:28:00.573Z,100530.63
2018-12-04T05:30:29.038Z,100545.48
2018-12-04T05:32:57.519Z,100554.45
2018-12-04T05:35:25.983Z,100560.06
2018-12-04T05:37:54.463Z,100564.45
2018-12-04T05:40:22.901Z,100567.65
2018-12-04T05:42:51.391Z,100565.98
2018-12-04T05:45:19.857Z,100569.56
2018-12-04T05:47:48.348Z,100577.00
2018-12-04T05:50:16.820Z,100573.98
2018-12-04T05:52:47.079Z,100588.86
2018-12-04T05:55:15.546Z,100590.22
2018-12-04T05:57:44.026Z,100597.80
2018-12-04T06:00:12.504Z,100596.78
2018-12-04T06:02:40.970Z,100610.30
2018-12-04T06:05:09.433Z,100611.33
2018-12-04T06:07:37.914Z,100626.20
2018-12-04T06:10:06.849Z,100628.92
2018-12-04T06:12:35.350Z,100641.77
2018-12-04T06:15:03.904Z,100646.80
2018-12-04T06:17:32.393Z,100649.70
2018-12-04T06:20:00.853Z,100657.63
2018-12-04T06:22:29.336Z,100663.17
2018-12-04T06:24:57.833Z,100655.91
2018-12-04T06:27:26.336Z,100669.78
2018-12-04T06:29:54.778Z,100669.27
2018-12-04T06:32:23.240Z,100674.17
2018-12-04T06:34:51.740Z,100680.60
2018-12-04T06:37:20.197Z,100679.90
2018-12-04T06:39:48.682Z,100691.22
2018-12-04T06:42:17.145Z,100704.72
2018-12-04T06:44:46.879Z,100708.44
2018-12-04T06:47:14.160Z,100718.23
2018-12-04T06:49:42.631Z,100724.46
2018-12-04T06:52:11.085Z,100727.31
2018-12-04T06:54:39.578Z,100732.56
2018-12-04T06:57:08.101Z,100742.53
2018-12-04T06:59:36.582Z,100755.86
2018-12-04T07:02:05.050Z,100751.94
2018-12-04T07:04:33.529Z,100762.07
2018-12-04T07:07:01.990Z,100768.80
2018-12-04T07:09:30.498Z,100782.45
2018-12-04T07:12:02.407Z,100786.52
2018-12-04T07:14:27.487Z,100797.00
2018-12-04T07:16:55.943Z,100806.13
2018-12-04T07:19:24.432Z,100810.84
2018-12-04T07:21:52.890Z,100813.08
2018-12-04T07:24:21.402Z,100821.34
2018-12-04T07:26:49.850Z,100828.30
2018-12-04T07:29:18.337Z,100839.80
2018-12-04T07:31:46.791Z,100843.48
2018-12-04T07:34:15.267Z,100861.89
2018-12-04T07:36:43.719Z,100870.05
2018-12-04T07:39:12.201Z,100877.85
2018-12-04T07:41:40.655Z,100876.36
2018-12-04T07:44:09.137Z,100879.25
2018-12-04T07:46:37.607Z,100881.45
2018-12-04T07:49:06.093Z,100884.80
2018-12-04T07:51:34.563Z,100890.87
2018-12-04T07:54:03.038Z,100895.26
2018-12-04T07:56:31.479Z,100909.28
2018-12-04T07:58:59.962Z,100912.70
2018-12-04T08:01:28.510Z,100915.44
2018-12-04T08:03:57.021Z,100932.71
2018-12-04T08:06:25.483Z,100933.06
2018-12-04T08:08:53.949Z,100932.39
2018-12-04T08:11:22.418Z,100945.23
2018-12-04T08:13:50.881Z,100949.48
2018-12-04T08:16:19.358Z,100947.62
2018-12-04T08:18:47.811Z,100951.88
2018-12-04T08:21:16.304Z,100955.11
2018-12-04T08:23:44.768Z,100966.98
2018-12-04T08:26:13.254Z,100967.97
2018-12-04T08:28:41.720Z,100973.23
2018-12-04T08:31:10.206Z,100977.81
2018-12-04T08:33:38.651Z,100975.59
2018-12-04T08:36:07.115Z,100981.69
2018-12-04T08:38:35.571Z,100982.06
2018-12-04T08:41:04.066Z,100984.60
2018-12-04T08:43:32.538Z,100997.83
2018-12-04T08:46:01.022Z,100997.19
2018-12-04T08:48:29.480Z,101002.62
2018-12-04T08:50:57.966Z,101014.31
2018-12-04T08:53:26.440Z,101023.98
2018-12-04T08:55:54.927Z,101027.08
2018-12-04T08:58:23.380Z,101029.80
2018-12-04T09:00:51.858Z,101033.54
2018-12-04T09:03:20.311Z,101035.41
2018-12-04T09:05:48.793Z,101046.91
2018-12-04T09:08:17.248Z,101049.14
2018-12-04T09:10:45.745Z,101062.19
2018-12-04T09:13:14.208Z,101064.91
2018-12-04T09:15:42.694Z,101067.44
2018-12-04T09:18:11.186Z,101059.31
2018-12-04T09:20:39.678Z,101077.30
2018-12-04T09:23:08.173Z,101072.53
2018-12-04T09:25:36.670Z,101087.30
2018-12-04T09:28:05.226Z,101087.16
2018-12-04T09:30:33.698Z,101097.44
2018-12-04T09:33:02.145Z,101097.41
2018-12-04T09:35:30.709Z,101106.91
2018-12-04T09:37:59.176Z,101112.69
2018-12-04T09:40:27.643Z,101116.77
2018-12-04T09:42:56.082Z,101117.80
2018-12-04T09:45:24.564Z,101121.51
2018-12-04T09:47:53.008Z,101126.08
2018-12-04T09:50:21.513Z,101134.59
2018-12-04T09:52:49.971Z,101136.98
2018-12-04T09:55:47.311Z,101137.83
2018-12-04T09:58:14.845Z,101125.81
2018-12-04T10:00:42.387Z,101136.98
2018-12-04T10:03:09.892Z,101146.29
2018-12-04T10:05:37.404Z,101146.48
2018-12-04T10:08:04.953Z,101152.08
2018-12-04T10:10:32.458Z,101146.48
2018-12-04T10:13:00.003Z,101163.15
2018-12-04T10:15:27.521Z,101159.71
2018-12-04T10:17:55.057Z,101157.19
2018-12-04T10:20:22.636Z,101173.67
2018-12-04T10:22:50.176Z,101170.96
2018-12-04T10:25:17.688Z,101178.08
2018-12-04T10:27:45.220Z,101179.28
2018-12-04T10:30:12.742Z,101186.21
2018-12-04T10:32:40.289Z,101198.08
2018-12-04T10:35:07.892Z,101200.61
2018-12-04T10:37:35.431Z,101210.28
2018-12-04T10:40:03.795Z,101216.03
2018-12-04T10:42:31.343Z,101208.92
2018-12-04T10:44:58.861Z,101219.09
2018-12-04T10:47:26.401Z,101222.68
2018-12-04T10:49:53.910Z,101231.66
2018-12-04T10:52:21.447Z,101227.91
2018-12-04T10:54:48.961Z,101218.09
2018-12-04T10:57:16.501Z,101228.76
2018-12-04T10:59:44.016Z,101230.44
2018-12-04T11:02:17.095Z,101226.47
2018-12-04T11:04:44.606Z,101254.73
2018-12-04T11:07:12.160Z,101246.48
2018-12-04T11:09:39.673Z,101242.74
2018-12-04T11:12:12.098Z,101251.24
2018-12-04T11:14:36.753Z,101266.55
2018-12-04T11:17:04.270Z,101265.06
2018-12-04T11:19:31.937Z,101267.27
2018-12-04T11:21:59.449Z,101261.36
2018-12-04T11:24:26.991Z,101272.37
2018-12-04T11:26:54.506Z,101268.67
2018-12-04T11:29:22.046Z,101271.71
2018-12-04T11:31:49.562Z,101266.47
2018-12-04T11:34:17.089Z,101270.69
2018-12-04T11:36:44.600Z,101284.63
2018-12-04T11:39:12.132Z,101291.73
2018-12-04T11:41:39.653Z,101298.53
2018-12-04T11:44:07.190Z,101306.34
2018-12-04T11:46:34.707Z,101321.27
2018-12-04T11:49:02.255Z,101319.73
2018-12-04T11:51:29.775Z,101299.19
2018-12-04T11:53:57.322Z,101327.73
2018-12-04T11:56:24.850Z,101313.64
2018-12-04T11:58:52.389Z,101319.41
2018-12-04T12:01:27.887Z,101332.13
2018-12-04T12:03:55.504Z,101342.98
2018-12-04T12:06:23.019Z,101350.28
2018-12-04T12:08:50.565Z,101359.78
2018-12-04T12:11:18.081Z,101357.78
2018-12-04T12:13:45.588Z,101364.05
2018-12-04T12:16:13.117Z,101373.55
2018-12-04T12:18:40.638Z,101373.38
2018-12-04T12:21:08.179Z,101369.80
2018-12-04T12:23:35.702Z,101370.48
2018-12-04T12:26:03.242Z,101389.66
2018-12-04T12:28:30.773Z,101387.96
2018-12-04T12:30:58.316Z,101398.96
2018-12-04T12:33:25.825Z,101394.57
2018-12-04T12:35:53.365Z,101392.69
2018-12-04T12:38:20.876Z,101420.98
2018-12-04T12:40:48.485Z,101428.62
2018-12-04T12:43:15.992Z,101412.83
2018-12-04T12:46:05.526Z,101426.05
2018-12-04T12:48:33.042Z,101424.99
2018-12-04T12:51:00.667Z,101426.52
2018-12-04T12:53:28.182Z,101437.73
2018-12-04T12:55:55.727Z,101432.12
2018-12-04T12:58:23.241Z,101435.97
2018-12-04T13:00:50.795Z,101436.75
2018-12-04T13:03:18.309Z,101447.89
2018-12-04T13:05:45.850Z,101444.57
2018-12-04T13:08:13.436Z,101440.66
2018-12-04T13:10:41.001Z,101450.56
2018-12-04T13:13:08.852Z,101443.09
2018-12-04T13:15:36.604Z,101455.95
2018-12-04T13:18:04.113Z,101469.67
2018-12-04T13:20:32.107Z,101451.59
2018-12-04T13:22:59.628Z,101472.83
2018-12-04T13:25:27.162Z,101486.31
2018-12-04T13:27:54.691Z,101486.80
2018-12-04T13:30:22.272Z,101492.59
2018-12-04T13:32:49.788Z,101492.05
2018-12-04T13:35:17.313Z,101507.63
2018-12-04T13:37:44.862Z,101495.38
2018-12-04T13:40:12.387Z,101508.42
2018-12-04T13:42:39.948Z,101503.17
2018-12-04T13:45:07.728Z,101513.66
2018-12-04T13:47:35.281Z,101517.30
2018-12-04T13:50:02.892Z,101519.08
2018-12-04T13:52:30.444Z,101538.26
2018-12-04T13:54:58.042Z,101543.65
2018-12-04T13:57:25.575Z,101548.67
2018-12-04T13:59:53.103Z,101541.89
2018-12-04T14:02:20.640Z,101554.84
2018-12-04T14:04:48.148Z,101559.78
2018-12-04T14:07:15.706Z,101556.43
2018-12-04T14:09:43.224Z,101558.82
2018-12-04T14:12:10.782Z,101551.34
2018-12-04T14:14:38.297Z,101568.45
2018-12-04T14:17:06.025Z,101576.27
2018-12-04T14:19:36.018Z,101583.50
2018-12-04T14:22:03.587Z,101590.06
2018-12-04T14:24:31.385Z,101601.86
2018-12-04T14:26:58.941Z,101610.56
2018-12-04T14:29:28.222Z,101616.73
2018-12-04T14:31:58.159Z,101615.61
2018-12-04T14:34:27.531Z,101623.91
2018-12-04T14:36:56.288Z,101632.20
2018-12-04T14:39:26.557Z,101623.36
2018-12-04T14:44:29.959Z,101644.33
2018-12-04T14:47:01.581Z,101642.36
2018-12-04T14:49:30.443Z,101655.88
2018-12-04T14:51:59.993Z,101652.10
2018-12-04T14:54:29.343Z,101654.39
2018-12-04T14:56:57.198Z,101661.14
2018-12-04T14:59:28.426Z,101671.91
2018-12-04T15:01:56.940Z,101674.73
2018-12-04T15:04:25.047Z,101682.47
2018-12-04T15:06:54.402Z,101680.39
2018-12-04T15:09:24.418Z,101690.78
2018-12-04T15:11:52.379Z,101696.45
2018-12-04T15:14:20.539Z,101698.61
2018-12-04T15:16:54.995Z,101698.41
2018-12-04T15:19:20.766Z,101702.95
2018-12-04T15:21:48.618Z,101704.83
2018-12-04T15:24:17.522Z,101707.09
2018-12-04T15:26:46.516Z,101714.22
2018-12-04T15:29:15.410Z,101719.97
2018-12-04T15:31:44.870Z,101728.37
2018-12-04T15:34:14.299Z,101735.03
2018-12-04T15:36:43.475Z,101738.98
2018-12-04T15:39:14.895Z,101746.43
2018-12-04T15:41:46.237Z,101749.27
2018-12-04T15:44:15.025Z,101754.81
2018-12-04T15:46:46.819Z,101758.52
2018-12-04T15:49:15.129Z,101761.12
2018-12-04T15:51:43.027Z,101770.82
2018-12-04T15:54:13.618Z,101776.97
2018-12-04T15:56:41.125Z,101775.63
2018-12-04T15:59:11.947Z,101788.76
2018-12-04T16:01:39.887Z,101789.11
2018-12-04T16:04:12.432Z,101787.45
2018-12-04T16:06:40.314Z,101803.28
2018-12-04T16:09:10.683Z,101801.55
2018-12-04T16:11:39.469Z,101807.93
2018-12-04T16:14:07.373Z,101812.72
2018-12-04T16:16:34.931Z,101810.13
2018-12-04T16:19:04.052Z,101817.12
2018-12-04T16:21:31.654Z,101822.11
2018-12-04T16:24:00.897Z,101825.56
2018-12-04T16:29:03.600Z,101835.20
2018-12-04T16:31:31.153Z,101838.40
2018-12-04T16:33:59.809Z,101842.41
2018-12-04T16:36:27.697Z,101846.45
2018-12-04T16:38:57.822Z,101849.24
2018-12-04T16:41:29.513Z,101845.94
2018-12-04T16:43:57.933Z,101847.40
2018-12-04T16:46:29.737Z,101854.19
2018-12-04T16:48:59.507Z,101855.82
2018-12-04T16:51:27.396Z,101864.02
2018-12-04T16:53:55.968Z,101861.46
2018-12-04T16:56:25.001Z,101868.45
2018-12-04T16:58:53.620Z,101876.79
2018-12-04T17:01:21.876Z,101876.44
2018-12-04T17:03:50.275Z,101883.42
2018-12-04T17:06:19.472Z,101882.56
2018-12-04T17:08:47.305Z,101890.55
2018-12-04T17:11:15.754Z,101893.73
2018-12-04T17:13:44.469Z,101892.13
2018-12-04T17:16:15.369Z,101896.81
2018-12-04T17:18:44.896Z,101904.05
2018-12-04T17:21:13.092Z,101903.80
2018-12-04T17:23:42.556Z,101912.13
2018-12-04T17:26:10.126Z,101912.36
2018-12-04T17:28:38.074Z,101911.86
2018-12-04T17:31:06.591Z,101912.72
2018-12-04T17:33:34.201Z,101915.91
2018-12-04T17:36:04.293Z,101922.29
2018-12-04T17:38:32.368Z,101916.89
2018-12-04T17:41:03.743Z,101923.25
2018-12-04T17:43:31.593Z,101925.46
2018-12-04T17:45:59.583Z,101931.33
2018-12-04T17:48:27.469Z,101932.27
2018-12-04T17:50:56.704Z,101931.03
2018-12-04T17:53:26.973Z,101932.09
2018-12-04T17:55:56.614Z,101941.14
2018-12-04T17:58:24.439Z,101942.13
2018-12-04T18:00:52.886Z,101940.89
2018-12-04T18:03:21.250Z,101941.67
2018-12-04T18:05:50.750Z,101936.63
2018-12-04T18:08:20.168Z,101950.52
2018-12-04T18:10:47.869Z,101952.85
2018-12-04T18:13:16.822Z,101955.19
2018-12-04T18:15:45.474Z,101957.06
2018-12-04T18:18:14.652Z,101959.64
2018-12-04T18:20:42.865Z,101968.84
2018-12-04T18:23:12.821Z,101970.41
2018-12-04T18:25:40.366Z,101964.75
2018-12-04T18:28:10.893Z,101969.27
2018-12-04T18:30:39.342Z,101973.31
2018-12-04T18:33:07.955Z,101979.09
2018-12-04T18:35:38.129Z,101982.44
2018-12-04T18:38:07.200Z,101987.96
2018-12-04T18:40:34.773Z,101990.16
2018-12-04T18:43:02.347Z,101994.44
2018-12-04T18:45:30.763Z,101997.52
2018-12-04T18:47:59.614Z,101999.73
2018-12-04T18:50:28.698Z,101994.58
2018-12-04T18:52:57.189Z,101995.81
2018-12-04T18:55:25.115Z,101991.77
2018-12-04T18:57:53.465Z,101994.09
2018-12-04T19:00:22.944Z,102001.06
2018-12-04T19:02:51.439Z,102000.81
2018-12-04T19:05:18.981Z,102008.31
2018-12-04T19:07:46.854Z,102010.61
2018-12-04T19:10:15.467Z,102016.73
2018-12-04T19:12:43.933Z,102023.96
2018-12-04T19:15:13.899Z,102031.81
2018-12-04T19:17:42.394Z,102036.61
2018-12-04T19:20:10.772Z,102039.53
2018-12-04T19:22:39.344Z,102049.08
2018-12-04T19:25:06.885Z,102049.64
2018-12-04T19:27:35.839Z,102049.16
2018-12-04T19:30:07.272Z,102049.48
2018-12-04T19:32:35.087Z,102054.41
2018-12-04T19:35:03.031Z,102060.75
2018-12-04T19:37:32.805Z,102056.58
2018-12-04T19:40:03.649Z,102058.73
2018-12-04T19:42:33.658Z,102061.30
2018-12-04T19:45:01.889Z,102072.42
2018-12-04T19:47:31.877Z,102069.47
2018-12-04T19:49:59.818Z,102072.16
2018-12-04T19:52:27.394Z,102084.48
2018-12-04T19:54:54.978Z,102083.73
2018-12-04T19:57:26.558Z,102093.38
2018-12-04T19:59:54.109Z,102095.61
2018-12-04T20:02:21.956Z,102106.12
2018-12-04T20:04:51.996Z,102104.27
2018-12-04T20:07:21.623Z,102111.85
2018-12-04T20:09:51.101Z,102118.58
2018-12-04T20:12:21.584Z,102118.44
2018-12-04T20:14:49.165Z,102120.37
2018-12-04T20:17:17.769Z,102126.24
2018-12-04T20:19:46.371Z,102126.73
2018-12-04T20:22:15.282Z,102133.38
2018-12-04T20:24:45.424Z,102136.42
2018-12-04T20:27:15.557Z,102131.31
2018-12-04T20:29:45.671Z,102135.94
2018-12-04T20:32:13.964Z,102142.30
2018-12-04T20:34:41.574Z,102146.56
2018-12-04T20:37:09.760Z,102146.21
2018-12-04T20:39:41.066Z,102154.78
2018-12-04T20:42:10.329Z,102161.38
2018-12-04T20:44:39.149Z,102172.13
2018-12-04T20:47:10.574Z,102166.74
2018-12-04T20:49:39.738Z,102176.37
2018-12-04T20:52:09.157Z,102183.45
2018-12-04T20:54:38.270Z,102185.13
2018-12-04T20:57:07.079Z,102186.14
2018-12-04T20:59:36.450Z,102192.74
2018-12-04T21:02:04.205Z,102196.05
2018-12-04T21:04:32.025Z,102199.11
2018-12-04T21:07:00.879Z,102201.73
2018-12-04T21:09:29.528Z,102203.79
2018-12-04T21:14:44.741Z,102208.01
2018-12-04T21:17:12.964Z,102219.14
2018-12-04T21:19:41.893Z,102219.50
2018-12-04T21:22:09.474Z,102222.84
2018-12-04T21:24:36.986Z,102224.40
2018-12-04T21:27:11.613Z,102227.64
2018-12-04T21:29:41.565Z,102229.66
2018-12-04T21:32:19.097Z,102242.05
2018-12-04T21:34:52.224Z,102239.63
2018-12-04T21:37:25.489Z,102233.77
2018-12-04T21:39:58.701Z,102233.61
2018-12-04T21:42:31.826Z,102236.45
2018-12-04T21:45:05.091Z,102240.27
2018-12-04T21:47:38.154Z,102249.38
2018-12-04T21:50:05.670Z,102252.12
2018-12-04T21:52:33.219Z,102253.25
2018-12-04T21:55:00.785Z,102246.61
2018-12-04T21:57:28.323Z,102252.92
2018-12-04T21:59:55.837Z,102251.34
2018-12-04T22:02:23.378Z,102259.37
2018-12-04T22:04:50.897Z,102253.20
2018-12-04T22:07:18.437Z,102263.96
2018-12-04T22:09:46.007Z,102264.30
2018-12-04T22:12:13.552Z,102263.05
2018-12-04T22:14:41.061Z,102266.94
2018-12-04T22:17:08.602Z,102270.73
2018-12-04T22:19:36.116Z,102272.72
2018-12-04T22:22:03.657Z,102270.58
2018-12-04T22:24:31.178Z,102278.50
2018-12-04T22:26:58.717Z,102285.16
2018-12-04T22:29:26.238Z,102286.91
2018-12-04T22:31:53.783Z,102292.66
2018-12-04T22:34:21.293Z,102305.05
2018-12-04T22:36:48.829Z,102308.09
2018-12-04T22:39:16.342Z,102306.11
2018-12-04T22:41:43.876Z,102311.70
2018-12-04T22:44:11.385Z,102315.95
2018-12-04T22:46:38.965Z,102317.62
2018-12-04T22:49:06.493Z,102313.91
2018-12-04T22:51:34.008Z,102311.75
2018-12-04T22:54:01.544Z,102310.54
2018-12-04T22:56:29.054Z,102311.92
2018-12-04T22:58:56.589Z,102309.67
2018-12-04T23:01:38.681Z,102302.59
2018-12-04T23:04:07.064Z,102299.94
2018-12-04T23:06:34.578Z,102303.11
2018-12-04T23:09:02.128Z,102300.99
2018-12-04T23:11:29.641Z,102301.98
2018-12-04T23:13:57.178Z,102300.11
2018-12-04T23:16:24.767Z,102305.07
2018-12-04T23:18:52.309Z,102311.47
2018-12-04T23:21:19.831Z,102313.75
2018-12-04T23:23:47.373Z,102320.88
2018-12-04T23:26:14.893Z,102325.16
2018-12-04T23:28:42.433Z,102327.80
2018-12-04T23:31:09.947Z,102335.17
2018-12-04T23:33:37.487Z,102336.19
2018-12-04T23:36:05.012Z,102333.29
2018-12-04T23:38:32.557Z,102344.82
2018-12-04T23:41:00.089Z,102341.48
2018-12-04T23:43:27.630Z,102337.66
2018-12-04T23:45:55.146Z,102340.27
2018-12-04T23:48:22.688Z,102339.91
2018-12-04T23:50:50.206Z,102335.43
2018-12-04T23:53:17.746Z,102338.81
2018-12-04T23:55:45.260Z,102338.61
2018-12-04T23:58:12.810Z,102345.47
